sensor_id;sensor_type;location;lat;lon;timestamp;P1;durP1;ratioP1;P2;durP2;ratioP2
17052;SDS011;8643;48.824;11.422;2023-06-26T00:00:14;6.85;;;5.55;;
17052;SDS011;8643;48.824;11.422;2023-06-26T00:02:45;6.47;;;5.05;;
17052;SDS011;8643;48.824;11.422;2023-06-26T00:05:13;7.25;;;5.65;;
17052;SDS011;8643;48.824;11.422;2023-06-26T00:07:42;9.00;;;5.68;;
17052;SDS011;8643;48.824;11.422;2023-06-26T00:10:11;8.57;;;5.85;;
17052;SDS011;8643;48.824;11.422;2023-06-26T00:12:41;9.32;;;5.80;;
17052;SDS011;8643;48.824;11.422;2023-06-26T00:15:10;6.85;;;5.30;;
17052;SDS011;8643;48.824;11.422;2023-06-26T00:17:38;7.60;;;5.55;;
17052;SDS011;8643;48.824;11.422;2023-06-26T00:20:07;6.18;;;5.35;;
17052;SDS011;8643;48.824;11.422;2023-06-26T00:22:39;7.68;;;5.60;;
17052;SDS011;8643;48.824;11.422;2023-06-26T00:25:08;7.03;;;5.72;;
17052;SDS011;8643;48.824;11.422;2023-06-26T00:27:36;6.15;;;5.25;;
17052;SDS011;8643;48.824;11.422;2023-06-26T00:30:07;6.93;;;5.60;;
17052;SDS011;8643;48.824;11.422;2023-06-26T00:32:37;7.55;;;5.55;;
17052;SDS011;8643;48.824;11.422;2023-06-26T00:35:06;8.52;;;6.28;;
17052;SDS011;8643;48.824;11.422;2023-06-26T00:37:35;6.78;;;5.40;;
17052;SDS011;8643;48.824;11.422;2023-06-26T00:40:04;6.50;;;5.32;;
17052;SDS011;8643;48.824;11.422;2023-06-26T00:42:34;8.25;;;6.05;;
17052;SDS011;8643;48.824;11.422;2023-06-26T00:45:03;6.82;;;5.53;;
17052;SDS011;8643;48.824;11.422;2023-06-26T00:47:34;7.70;;;5.53;;
17052;SDS011;8643;48.824;11.422;2023-06-26T00:50:05;7.22;;;5.63;;
17052;SDS011;8643;48.824;11.422;2023-06-26T00:52:34;8.50;;;6.00;;
17052;SDS011;8643;48.824;11.422;2023-06-26T00:55:05;7.25;;;5.80;;
17052;SDS011;8643;48.824;11.422;2023-06-26T00:57:35;8.27;;;5.82;;
17052;SDS011;8643;48.824;11.422;2023-06-26T01:00:05;7.72;;;5.70;;
17052;SDS011;8643;48.824;11.422;2023-06-26T01:02:38;7.10;;;5.63;;
17052;SDS011;8643;48.824;11.422;2023-06-26T01:05:07;6.50;;;5.60;;
17052;SDS011;8643;48.824;11.422;2023-06-26T01:07:39;8.27;;;6.25;;
17052;SDS011;8643;48.824;11.422;2023-06-26T01:10:08;9.07;;;6.32;;
17052;SDS011;8643;48.824;11.422;2023-06-26T01:12:37;7.93;;;5.63;;
17052;SDS011;8643;48.824;11.422;2023-06-26T01:15:06;7.85;;;5.50;;
17052;SDS011;8643;48.824;11.422;2023-06-26T01:17:38;7.25;;;6.00;;
17052;SDS011;8643;48.824;11.422;2023-06-26T01:20:11;7.18;;;5.97;;
17052;SDS011;8643;48.824;11.422;2023-06-26T01:22:45;14.15;;;5.78;;
17052;SDS011;8643;48.824;11.422;2023-06-26T01:25:27;7.82;;;5.78;;
17052;SDS011;8643;48.824;11.422;2023-06-26T01:28:10;6.95;;;5.97;;
17052;SDS011;8643;48.824;11.422;2023-06-26T01:30:42;8.05;;;6.20;;
17052;SDS011;8643;48.824;11.422;2023-06-26T01:33:13;7.43;;;6.03;;
17052;SDS011;8643;48.824;11.422;2023-06-26T01:35:42;6.90;;;5.28;;
17052;SDS011;8643;48.824;11.422;2023-06-26T01:38:12;10.80;;;6.40;;
17052;SDS011;8643;48.824;11.422;2023-06-26T01:40:42;7.60;;;5.85;;
17052;SDS011;8643;48.824;11.422;2023-06-26T01:43:15;7.50;;;5.75;;
17052;SDS011;8643;48.824;11.422;2023-06-26T01:45:50;10.05;;;6.40;;
17052;SDS011;8643;48.824;11.422;2023-06-26T01:48:23;8.43;;;6.10;;
17052;SDS011;8643;48.824;11.422;2023-06-26T01:50:58;7.35;;;5.85;;
17052;SDS011;8643;48.824;11.422;2023-06-26T01:53:32;9.18;;;6.05;;
17052;SDS011;8643;48.824;11.422;2023-06-26T01:56:13;7.93;;;5.95;;
17052;SDS011;8643;48.824;11.422;2023-06-26T01:58:47;7.28;;;5.90;;
17052;SDS011;8643;48.824;11.422;2023-06-26T02:01:19;9.43;;;6.20;;
17052;SDS011;8643;48.824;11.422;2023-06-26T02:03:48;8.35;;;5.90;;
17052;SDS011;8643;48.824;11.422;2023-06-26T02:06:17;7.47;;;5.80;;
17052;SDS011;8643;48.824;11.422;2023-06-26T02:08:46;8.13;;;6.28;;
17052;SDS011;8643;48.824;11.422;2023-06-26T02:11:15;8.05;;;6.10;;
17052;SDS011;8643;48.824;11.422;2023-06-26T02:13:44;8.05;;;6.20;;
17052;SDS011;8643;48.824;11.422;2023-06-26T02:16:14;9.20;;;5.90;;
17052;SDS011;8643;48.824;11.422;2023-06-26T02:18:43;8.38;;;6.50;;
17052;SDS011;8643;48.824;11.422;2023-06-26T02:21:12;8.68;;;6.32;;
17052;SDS011;8643;48.824;11.422;2023-06-26T02:23:42;8.27;;;6.55;;
17052;SDS011;8643;48.824;11.422;2023-06-26T02:26:12;8.05;;;6.32;;
17052;SDS011;8643;48.824;11.422;2023-06-26T02:28:41;10.02;;;6.70;;
17052;SDS011;8643;48.824;11.422;2023-06-26T02:31:12;9.25;;;6.68;;
17052;SDS011;8643;48.824;11.422;2023-06-26T02:33:41;9.77;;;6.35;;
17052;SDS011;8643;48.824;11.422;2023-06-26T02:36:12;8.82;;;5.90;;
17052;SDS011;8643;48.824;11.422;2023-06-26T02:38:40;7.97;;;6.30;;
17052;SDS011;8643;48.824;11.422;2023-06-26T02:41:09;10.25;;;5.97;;
17052;SDS011;8643;48.824;11.422;2023-06-26T02:43:38;7.15;;;6.03;;
17052;SDS011;8643;48.824;11.422;2023-06-26T02:46:07;8.00;;;6.28;;
17052;SDS011;8643;48.824;11.422;2023-06-26T02:48:37;7.40;;;5.90;;
17052;SDS011;8643;48.824;11.422;2023-06-26T02:51:07;7.85;;;5.82;;
17052;SDS011;8643;48.824;11.422;2023-06-26T02:53:36;7.80;;;5.65;;
17052;SDS011;8643;48.824;11.422;2023-06-26T02:56:06;10.40;;;7.10;;
17052;SDS011;8643;48.824;11.422;2023-06-26T02:58:36;10.02;;;6.72;;
17052;SDS011;8643;48.824;11.422;2023-06-26T03:01:04;9.32;;;6.70;;
17052;SDS011;8643;48.824;11.422;2023-06-26T03:03:33;11.55;;;7.10;;
17052;SDS011;8643;48.824;11.422;2023-06-26T03:06:13;9.23;;;6.40;;
17052;SDS011;8643;48.824;11.422;2023-06-26T03:08:43;8.27;;;6.40;;
17052;SDS011;8643;48.824;11.422;2023-06-26T03:11:14;10.23;;;6.30;;
17052;SDS011;8643;48.824;11.422;2023-06-26T03:13:43;10.43;;;6.50;;
17052;SDS011;8643;48.824;11.422;2023-06-26T03:16:13;8.68;;;6.13;;
17052;SDS011;8643;48.824;11.422;2023-06-26T03:18:42;8.80;;;6.55;;
17052;SDS011;8643;48.824;11.422;2023-06-26T03:21:12;7.88;;;5.55;;
17052;SDS011;8643;48.824;11.422;2023-06-26T03:23:41;9.27;;;6.85;;
17052;SDS011;8643;48.824;11.422;2023-06-26T03:26:11;9.68;;;6.30;;
17052;SDS011;8643;48.824;11.422;2023-06-26T03:28:41;9.82;;;6.70;;
17052;SDS011;8643;48.824;11.422;2023-06-26T03:31:09;8.70;;;6.32;;
17052;SDS011;8643;48.824;11.422;2023-06-26T03:33:38;9.07;;;6.75;;
17052;SDS011;8643;48.824;11.422;2023-06-26T03:36:07;8.50;;;5.75;;
17052;SDS011;8643;48.824;11.422;2023-06-26T03:38:37;8.15;;;5.80;;
17052;SDS011;8643;48.824;11.422;2023-06-26T03:41:06;10.38;;;6.70;;
17052;SDS011;8643;48.824;11.422;2023-06-26T03:43:35;10.52;;;6.78;;
17052;SDS011;8643;48.824;11.422;2023-06-26T03:46:12;8.80;;;6.57;;
17052;SDS011;8643;48.824;11.422;2023-06-26T03:48:41;9.68;;;6.68;;
17052;SDS011;8643;48.824;11.422;2023-06-26T03:51:10;9.82;;;6.72;;
17052;SDS011;8643;48.824;11.422;2023-06-26T03:53:41;9.88;;;6.90;;
17052;SDS011;8643;48.824;11.422;2023-06-26T03:56:09;9.55;;;6.95;;
17052;SDS011;8643;48.824;11.422;2023-06-26T03:58:38;8.43;;;6.60;;
17052;SDS011;8643;48.824;11.422;2023-06-26T04:01:06;10.10;;;6.70;;
17052;SDS011;8643;48.824;11.422;2023-06-26T04:03:35;9.27;;;6.53;;
17052;SDS011;8643;48.824;11.422;2023-06-26T04:06:04;8.80;;;6.90;;
17052;SDS011;8643;48.824;11.422;2023-06-26T04:08:33;8.90;;;7.03;;
17052;SDS011;8643;48.824;11.422;2023-06-26T04:11:02;8.90;;;6.45;;
17052;SDS011;8643;48.824;11.422;2023-06-26T04:13:31;10.20;;;6.57;;
17052;SDS011;8643;48.824;11.422;2023-06-26T04:16:00;11.85;;;6.57;;
17052;SDS011;8643;48.824;11.422;2023-06-26T04:18:29;10.20;;;6.95;;
17052;SDS011;8643;48.824;11.422;2023-06-26T04:21:04;8.40;;;6.60;;
17052;SDS011;8643;48.824;11.422;2023-06-26T04:23:35;9.52;;;6.90;;
17052;SDS011;8643;48.824;11.422;2023-06-26T04:26:05;9.27;;;6.80;;
17052;SDS011;8643;48.824;11.422;2023-06-26T04:28:35;8.85;;;6.88;;
17052;SDS011;8643;48.824;11.422;2023-06-26T04:31:04;13.75;;;7.32;;
17052;SDS011;8643;48.824;11.422;2023-06-26T04:33:33;11.10;;;6.82;;
17052;SDS011;8643;48.824;11.422;2023-06-26T04:36:02;9.55;;;7.07;;
17052;SDS011;8643;48.824;11.422;2023-06-26T04:38:31;13.68;;;7.57;;
17052;SDS011;8643;48.824;11.422;2023-06-26T04:41:01;9.48;;;7.35;;
17052;SDS011;8643;48.824;11.422;2023-06-26T04:43:32;8.85;;;6.88;;
17052;SDS011;8643;48.824;11.422;2023-06-26T04:46:01;10.13;;;7.50;;
17052;SDS011;8643;48.824;11.422;2023-06-26T04:48:30;10.30;;;7.75;;
17052;SDS011;8643;48.824;11.422;2023-06-26T04:50:59;8.95;;;6.80;;
17052;SDS011;8643;48.824;11.422;2023-06-26T04:53:27;11.43;;;7.35;;
17052;SDS011;8643;48.824;11.422;2023-06-26T04:55:56;10.93;;;7.18;;
17052;SDS011;8643;48.824;11.422;2023-06-26T04:58:25;10.40;;;7.43;;
17052;SDS011;8643;48.824;11.422;2023-06-26T05:00:55;11.65;;;7.50;;
17052;SDS011;8643;48.824;11.422;2023-06-26T05:03:25;9.73;;;7.30;;
17052;SDS011;8643;48.824;11.422;2023-06-26T05:05:54;11.07;;;8.40;;
17052;SDS011;8643;48.824;11.422;2023-06-26T05:08:23;10.63;;;7.70;;
17052;SDS011;8643;48.824;11.422;2023-06-26T05:10:53;11.25;;;7.93;;
17052;SDS011;8643;48.824;11.422;2023-06-26T05:13:24;9.93;;;7.82;;
17052;SDS011;8643;48.824;11.422;2023-06-26T05:15:53;10.23;;;7.53;;
17052;SDS011;8643;48.824;11.422;2023-06-26T05:18:23;11.00;;;7.75;;
17052;SDS011;8643;48.824;11.422;2023-06-26T05:20:52;12.10;;;8.65;;
17052;SDS011;8643;48.824;11.422;2023-06-26T05:23:21;11.10;;;8.40;;
17052;SDS011;8643;48.824;11.422;2023-06-26T05:25:53;11.55;;;8.02;;
17052;SDS011;8643;48.824;11.422;2023-06-26T05:28:22;11.77;;;8.25;;
17052;SDS011;8643;48.824;11.422;2023-06-26T05:30:54;9.77;;;7.40;;
17052;SDS011;8643;48.824;11.422;2023-06-26T05:33:25;11.63;;;7.90;;
17052;SDS011;8643;48.824;11.422;2023-06-26T05:35:55;9.13;;;6.95;;
17052;SDS011;8643;48.824;11.422;2023-06-26T05:38:25;11.65;;;8.02;;
17052;SDS011;8643;48.824;11.422;2023-06-26T05:40:55;12.43;;;9.27;;
17052;SDS011;8643;48.824;11.422;2023-06-26T05:43:24;11.65;;;8.20;;
17052;SDS011;8643;48.824;11.422;2023-06-26T05:45:55;13.00;;;8.60;;
17052;SDS011;8643;48.824;11.422;2023-06-26T05:48:26;12.32;;;9.63;;
17052;SDS011;8643;48.824;11.422;2023-06-26T05:50:55;14.43;;;8.63;;
17052;SDS011;8643;48.824;11.422;2023-06-26T05:53:24;13.43;;;9.20;;
17052;SDS011;8643;48.824;11.422;2023-06-26T05:55:53;12.25;;;9.05;;
17052;SDS011;8643;48.824;11.422;2023-06-26T05:58:23;12.75;;;9.05;;
17052;SDS011;8643;48.824;11.422;2023-06-26T06:00:53;12.55;;;9.45;;
17052;SDS011;8643;48.824;11.422;2023-06-26T06:03:23;13.02;;;8.95;;
17052;SDS011;8643;48.824;11.422;2023-06-26T06:05:53;15.27;;;9.07;;
17052;SDS011;8643;48.824;11.422;2023-06-26T06:08:21;11.93;;;8.80;;
17052;SDS011;8643;48.824;11.422;2023-06-26T06:10:50;13.95;;;9.40;;
17052;SDS011;8643;48.824;11.422;2023-06-26T06:13:18;13.68;;;9.60;;
17052;SDS011;8643;48.824;11.422;2023-06-26T06:15:47;16.27;;;9.63;;
17052;SDS011;8643;48.824;11.422;2023-06-26T06:18:16;13.82;;;8.30;;
17052;SDS011;8643;48.824;11.422;2023-06-26T06:20:45;11.90;;;9.23;;
17052;SDS011;8643;48.824;11.422;2023-06-26T06:23:15;13.07;;;9.85;;
17052;SDS011;8643;48.824;11.422;2023-06-26T06:25:44;14.25;;;10.73;;
17052;SDS011;8643;48.824;11.422;2023-06-26T06:28:12;13.25;;;9.80;;
17052;SDS011;8643;48.824;11.422;2023-06-26T06:30:42;17.25;;;11.35;;
17052;SDS011;8643;48.824;11.422;2023-06-26T06:33:14;13.18;;;9.85;;
17052;SDS011;8643;48.824;11.422;2023-06-26T06:35:43;16.02;;;11.38;;
17052;SDS011;8643;48.824;11.422;2023-06-26T06:38:12;13.90;;;10.43;;
17052;SDS011;8643;48.824;11.422;2023-06-26T06:40:42;16.63;;;10.00;;
17052;SDS011;8643;48.824;11.422;2023-06-26T06:43:10;13.20;;;10.32;;
17052;SDS011;8643;48.824;11.422;2023-06-26T06:45:39;18.30;;;11.27;;
17052;SDS011;8643;48.824;11.422;2023-06-26T06:48:08;17.58;;;10.13;;
17052;SDS011;8643;48.824;11.422;2023-06-26T06:50:37;13.80;;;10.65;;
17052;SDS011;8643;48.824;11.422;2023-06-26T06:53:06;17.05;;;10.80;;
17052;SDS011;8643;48.824;11.422;2023-06-26T06:55:35;13.57;;;10.48;;
17052;SDS011;8643;48.824;11.422;2023-06-26T06:58:05;17.13;;;10.57;;
17052;SDS011;8643;48.824;11.422;2023-06-26T07:00:34;13.73;;;10.43;;
17052;SDS011;8643;48.824;11.422;2023-06-26T07:03:03;13.30;;;10.32;;
17052;SDS011;8643;48.824;11.422;2023-06-26T07:05:32;14.32;;;10.65;;
17052;SDS011;8643;48.824;11.422;2023-06-26T07:08:01;14.15;;;9.75;;
17052;SDS011;8643;48.824;11.422;2023-06-26T07:10:30;15.23;;;10.65;;
17052;SDS011;8643;48.824;11.422;2023-06-26T07:12:59;11.02;;;8.68;;
17052;SDS011;8643;48.824;11.422;2023-06-26T07:15:30;11.73;;;9.20;;
17052;SDS011;8643;48.824;11.422;2023-06-26T07:17:59;17.02;;;9.85;;
17052;SDS011;8643;48.824;11.422;2023-06-26T07:20:28;14.27;;;10.27;;
17052;SDS011;8643;48.824;11.422;2023-06-26T07:22:56;11.73;;;9.25;;
17052;SDS011;8643;48.824;11.422;2023-06-26T07:25:25;11.15;;;7.80;;
17052;SDS011;8643;48.824;11.422;2023-06-26T07:27:54;11.10;;;8.55;;
17052;SDS011;8643;48.824;11.422;2023-06-26T07:30:23;12.15;;;8.20;;
17052;SDS011;8643;48.824;11.422;2023-06-26T07:32:53;11.07;;;8.43;;
17052;SDS011;8643;48.824;11.422;2023-06-26T07:35:22;11.70;;;8.27;;
17052;SDS011;8643;48.824;11.422;2023-06-26T07:37:51;11.95;;;7.95;;
17052;SDS011;8643;48.824;11.422;2023-06-26T07:40:20;13.13;;;8.80;;
17052;SDS011;8643;48.824;11.422;2023-06-26T07:42:49;10.93;;;8.05;;
17052;SDS011;8643;48.824;11.422;2023-06-26T07:45:17;9.25;;;7.70;;
17052;SDS011;8643;48.824;11.422;2023-06-26T07:47:47;10.68;;;8.27;;
17052;SDS011;8643;48.824;11.422;2023-06-26T07:50:17;11.82;;;8.10;;
17052;SDS011;8643;48.824;11.422;2023-06-26T07:52:49;10.73;;;8.00;;
17052;SDS011;8643;48.824;11.422;2023-06-26T07:55:19;9.27;;;7.95;;
17052;SDS011;8643;48.824;11.422;2023-06-26T07:57:48;9.52;;;7.85;;
17052;SDS011;8643;48.824;11.422;2023-06-26T08:00:18;10.75;;;7.70;;
17052;SDS011;8643;48.824;11.422;2023-06-26T08:02:47;10.30;;;7.82;;
17052;SDS011;8643;48.824;11.422;2023-06-26T08:05:17;10.65;;;7.65;;
17052;SDS011;8643;48.824;11.422;2023-06-26T08:07:45;9.55;;;7.45;;
17052;SDS011;8643;48.824;11.422;2023-06-26T08:10:14;9.95;;;7.90;;
17052;SDS011;8643;48.824;11.422;2023-06-26T08:12:42;9.05;;;7.70;;
17052;SDS011;8643;48.824;11.422;2023-06-26T08:15:11;10.80;;;8.25;;
17052;SDS011;8643;48.824;11.422;2023-06-26T08:17:40;9.25;;;7.95;;
17052;SDS011;8643;48.824;11.422;2023-06-26T08:20:09;8.93;;;7.53;;
17052;SDS011;8643;48.824;11.422;2023-06-26T08:22:40;8.82;;;7.68;;
17052;SDS011;8643;48.824;11.422;2023-06-26T08:25:09;10.13;;;8.98;;
17052;SDS011;8643;48.824;11.422;2023-06-26T08:27:38;9.13;;;8.18;;
17052;SDS011;8643;48.824;11.422;2023-06-26T08:30:07;9.40;;;7.80;;
17052;SDS011;8643;48.824;11.422;2023-06-26T08:32:36;9.57;;;8.02;;
17052;SDS011;8643;48.824;11.422;2023-06-26T08:35:05;9.57;;;7.60;;
17052;SDS011;8643;48.824;11.422;2023-06-26T08:37:36;9.98;;;8.27;;
17052;SDS011;8643;48.824;11.422;2023-06-26T08:40:07;10.73;;;8.57;;
17052;SDS011;8643;48.824;11.422;2023-06-26T08:42:36;14.18;;;8.95;;
17052;SDS011;8643;48.824;11.422;2023-06-26T08:45:05;8.93;;;7.97;;
17052;SDS011;8643;48.824;11.422;2023-06-26T08:47:34;11.18;;;8.52;;
17052;SDS011;8643;48.824;11.422;2023-06-26T08:50:07;10.80;;;9.05;;
17052;SDS011;8643;48.824;11.422;2023-06-26T08:52:41;12.98;;;8.38;;
17052;SDS011;8643;48.824;11.422;2023-06-26T08:55:21;9.75;;;8.38;;
17052;SDS011;8643;48.824;11.422;2023-06-26T08:57:55;14.13;;;9.07;;
17052;SDS011;8643;48.824;11.422;2023-06-26T09:00:25;11.85;;;8.82;;
17052;SDS011;8643;48.824;11.422;2023-06-26T09:02:54;9.75;;;7.85;;
17052;SDS011;8643;48.824;11.422;2023-06-26T09:05:24;8.88;;;7.63;;
17052;SDS011;8643;48.824;11.422;2023-06-26T09:07:54;10.65;;;8.00;;
17052;SDS011;8643;48.824;11.422;2023-06-26T09:10:26;9.70;;;7.75;;
17052;SDS011;8643;48.824;11.422;2023-06-26T09:12:55;8.98;;;8.07;;
17052;SDS011;8643;48.824;11.422;2023-06-26T09:15:24;10.80;;;8.05;;
17052;SDS011;8643;48.824;11.422;2023-06-26T09:17:55;9.75;;;8.30;;
17052;SDS011;8643;48.824;11.422;2023-06-26T09:20:25;12.98;;;8.50;;
17052;SDS011;8643;48.824;11.422;2023-06-26T09:22:57;10.35;;;8.25;;
17052;SDS011;8643;48.824;11.422;2023-06-26T09:25:27;9.43;;;8.07;;
17052;SDS011;8643;48.824;11.422;2023-06-26T09:27:56;10.38;;;8.68;;
17052;SDS011;8643;48.824;11.422;2023-06-26T09:30:25;10.10;;;7.97;;
17052;SDS011;8643;48.824;11.422;2023-06-26T09:32:54;12.60;;;8.32;;
17052;SDS011;8643;48.824;11.422;2023-06-26T09:35:22;15.80;;;8.07;;
17052;SDS011;8643;48.824;11.422;2023-06-26T09:37:54;10.07;;;7.82;;
17052;SDS011;8643;48.824;11.422;2023-06-26T09:40:23;9.55;;;7.60;;
17052;SDS011;8643;48.824;11.422;2023-06-26T09:42:56;9.05;;;8.00;;
17052;SDS011;8643;48.824;11.422;2023-06-26T09:45:31;10.88;;;8.35;;
17052;SDS011;8643;48.824;11.422;2023-06-26T09:48:00;10.77;;;8.30;;
17052;SDS011;8643;48.824;11.422;2023-06-26T09:50:30;11.18;;;7.65;;
17052;SDS011;8643;48.824;11.422;2023-06-26T09:53:06;8.68;;;7.72;;
17052;SDS011;8643;48.824;11.422;2023-06-26T09:55:39;11.18;;;7.90;;
17052;SDS011;8643;48.824;11.422;2023-06-26T09:58:10;9.77;;;7.68;;
17052;SDS011;8643;48.824;11.422;2023-06-26T10:00:41;8.48;;;7.57;;
17052;SDS011;8643;48.824;11.422;2023-06-26T10:03:10;10.73;;;7.70;;
17052;SDS011;8643;48.824;11.422;2023-06-26T10:05:40;10.20;;;8.25;;
17052;SDS011;8643;48.824;11.422;2023-06-26T10:08:09;11.02;;;8.45;;
17052;SDS011;8643;48.824;11.422;2023-06-26T10:10:41;11.52;;;7.82;;
17052;SDS011;8643;48.824;11.422;2023-06-26T10:13:15;9.48;;;8.43;;
17052;SDS011;8643;48.824;11.422;2023-06-26T10:15:52;10.65;;;8.07;;
17052;SDS011;8643;48.824;11.422;2023-06-26T10:18:23;9.82;;;8.38;;
17052;SDS011;8643;48.824;11.422;2023-06-26T10:20:55;7.32;;;6.60;;
17052;SDS011;8643;48.824;11.422;2023-06-26T10:23:25;8.32;;;6.97;;
17052;SDS011;8643;48.824;11.422;2023-06-26T10:26:00;8.63;;;7.32;;
17052;SDS011;8643;48.824;11.422;2023-06-26T10:28:30;9.30;;;7.13;;
17052;SDS011;8643;48.824;11.422;2023-06-26T10:31:01;13.40;;;7.47;;
17052;SDS011;8643;48.824;11.422;2023-06-26T10:33:35;8.27;;;6.93;;
17052;SDS011;8643;48.824;11.422;2023-06-26T10:36:12;9.35;;;6.50;;
17052;SDS011;8643;48.824;11.422;2023-06-26T10:38:48;8.30;;;6.32;;
17052;SDS011;8643;48.824;11.422;2023-06-26T10:41:23;13.90;;;6.70;;
17052;SDS011;8643;48.824;11.422;2023-06-26T10:44:05;10.32;;;6.57;;
17052;SDS011;8643;48.824;11.422;2023-06-26T10:46:48;8.13;;;6.65;;
17052;SDS011;8643;48.824;11.422;2023-06-26T10:49:19;8.00;;;7.05;;
17052;SDS011;8643;48.824;11.422;2023-06-26T10:51:52;7.13;;;6.43;;
17052;SDS011;8643;48.824;11.422;2023-06-26T10:54:23;6.82;;;6.13;;
17052;SDS011;8643;48.824;11.422;2023-06-26T10:56:58;9.95;;;5.97;;
17052;SDS011;8643;48.824;11.422;2023-06-26T10:59:27;7.90;;;6.35;;
17052;SDS011;8643;48.824;11.422;2023-06-26T11:01:58;7.68;;;6.38;;
17052;SDS011;8643;48.824;11.422;2023-06-26T11:04:38;7.15;;;6.32;;
17052;SDS011;8643;48.824;11.422;2023-06-26T11:07:15;7.82;;;5.97;;
17052;SDS011;8643;48.824;11.422;2023-06-26T11:09:56;6.90;;;6.15;;
17052;SDS011;8643;48.824;11.422;2023-06-26T11:12:36;6.70;;;5.78;;
17052;SDS011;8643;48.824;11.422;2023-06-26T11:15:09;7.22;;;5.97;;
17052;SDS011;8643;48.824;11.422;2023-06-26T11:17:39;6.90;;;5.85;;
17052;SDS011;8643;48.824;11.422;2023-06-26T11:20:10;7.85;;;6.10;;
17052;SDS011;8643;48.824;11.422;2023-06-26T11:22:41;10.07;;;6.47;;
17052;SDS011;8643;48.824;11.422;2023-06-26T11:25:10;6.53;;;5.88;;
17052;SDS011;8643;48.824;11.422;2023-06-26T11:27:40;9.02;;;6.10;;
17052;SDS011;8643;48.824;11.422;2023-06-26T11:30:21;8.32;;;6.10;;
17052;SDS011;8643;48.824;11.422;2023-06-26T11:32:51;8.60;;;6.30;;
17052;SDS011;8643;48.824;11.422;2023-06-26T11:35:23;7.38;;;6.32;;
17052;SDS011;8643;48.824;11.422;2023-06-26T11:37:57;7.88;;;6.13;;
17052;SDS011;8643;48.824;11.422;2023-06-26T11:40:31;8.63;;;6.18;;
17052;SDS011;8643;48.824;11.422;2023-06-26T11:43:03;7.05;;;5.90;;
17052;SDS011;8643;48.824;11.422;2023-06-26T11:45:32;7.10;;;5.78;;
17052;SDS011;8643;48.824;11.422;2023-06-26T11:48:00;7.65;;;6.18;;
17052;SDS011;8643;48.824;11.422;2023-06-26T11:50:29;6.65;;;5.95;;
17052;SDS011;8643;48.824;11.422;2023-06-26T11:52:58;6.95;;;6.05;;
17052;SDS011;8643;48.824;11.422;2023-06-26T11:55:39;6.43;;;5.82;;
17052;SDS011;8643;48.824;11.422;2023-06-26T11:58:11;6.38;;;5.43;;
17052;SDS011;8643;48.824;11.422;2023-06-26T12:00:41;7.93;;;5.47;;
17052;SDS011;8643;48.824;11.422;2023-06-26T12:03:10;6.10;;;5.50;;
17052;SDS011;8643;48.824;11.422;2023-06-26T12:05:39;6.90;;;5.47;;
17052;SDS011;8643;48.824;11.422;2023-06-26T12:08:11;7.05;;;5.82;;
17052;SDS011;8643;48.824;11.422;2023-06-26T12:10:40;6.60;;;5.80;;
17052;SDS011;8643;48.824;11.422;2023-06-26T12:13:10;7.18;;;5.32;;
17052;SDS011;8643;48.824;11.422;2023-06-26T12:15:39;6.30;;;5.60;;
17052;SDS011;8643;48.824;11.422;2023-06-26T12:18:08;6.63;;;5.40;;
17052;SDS011;8643;48.824;11.422;2023-06-26T12:20:39;9.57;;;5.38;;
17052;SDS011;8643;48.824;11.422;2023-06-26T12:23:11;5.95;;;5.13;;
17052;SDS011;8643;48.824;11.422;2023-06-26T12:25:40;6.20;;;5.60;;
17052;SDS011;8643;48.824;11.422;2023-06-26T12:28:17;8.15;;;6.53;;
17052;SDS011;8643;48.824;11.422;2023-06-26T12:30:46;8.32;;;7.32;;
17052;SDS011;8643;48.824;11.422;2023-06-26T12:33:36;8.98;;;6.50;;
17052;SDS011;8643;48.824;11.422;2023-06-26T12:36:04;8.05;;;6.60;;
17052;SDS011;8643;48.824;11.422;2023-06-26T12:38:38;8.02;;;7.03;;
17052;SDS011;8643;48.824;11.422;2023-06-26T12:41:11;7.47;;;6.68;;
17052;SDS011;8643;48.824;11.422;2023-06-26T12:43:42;7.65;;;6.43;;
17052;SDS011;8643;48.824;11.422;2023-06-26T12:46:11;8.15;;;6.75;;
17052;SDS011;8643;48.824;11.422;2023-06-26T12:48:41;10.45;;;6.20;;
17052;SDS011;8643;48.824;11.422;2023-06-26T12:51:12;7.18;;;6.45;;
17052;SDS011;8643;48.824;11.422;2023-06-26T12:53:42;7.75;;;6.50;;
17052;SDS011;8643;48.824;11.422;2023-06-26T12:56:11;9.30;;;6.78;;
17052;SDS011;8643;48.824;11.422;2023-06-26T12:58:40;6.72;;;6.00;;
17052;SDS011;8643;48.824;11.422;2023-06-26T13:01:10;7.10;;;5.55;;
17052;SDS011;8643;48.824;11.422;2023-06-26T13:03:41;9.43;;;5.85;;
17052;SDS011;8643;48.824;11.422;2023-06-26T13:06:10;6.63;;;5.93;;
17052;SDS011;8643;48.824;11.422;2023-06-26T13:08:41;10.48;;;5.88;;
17052;SDS011;8643;48.824;11.422;2023-06-26T13:11:09;6.65;;;5.53;;
17052;SDS011;8643;48.824;11.422;2023-06-26T13:13:38;7.13;;;5.60;;
17052;SDS011;8643;48.824;11.422;2023-06-26T13:16:07;8.13;;;5.40;;
17052;SDS011;8643;48.824;11.422;2023-06-26T13:18:37;8.35;;;5.80;;
17052;SDS011;8643;48.824;11.422;2023-06-26T13:21:05;6.65;;;5.80;;
17052;SDS011;8643;48.824;11.422;2023-06-26T13:23:34;8.38;;;5.80;;
17052;SDS011;8643;48.824;11.422;2023-06-26T13:26:02;7.45;;;6.00;;
17052;SDS011;8643;48.824;11.422;2023-06-26T13:28:32;8.00;;;6.07;;
17052;SDS011;8643;48.824;11.422;2023-06-26T13:31:01;6.55;;;5.95;;
17052;SDS011;8643;48.824;11.422;2023-06-26T13:33:30;7.60;;;5.85;;
17052;SDS011;8643;48.824;11.422;2023-06-26T13:36:01;8.40;;;5.72;;
17052;SDS011;8643;48.824;11.422;2023-06-26T13:38:32;6.20;;;5.47;;
17052;SDS011;8643;48.824;11.422;2023-06-26T13:41:02;10.23;;;5.55;;
17052;SDS011;8643;48.824;11.422;2023-06-26T13:43:30;6.88;;;5.45;;
17052;SDS011;8643;48.824;11.422;2023-06-26T13:46:00;7.50;;;5.88;;
17052;SDS011;8643;48.824;11.422;2023-06-26T13:48:29;8.02;;;5.53;;
17052;SDS011;8643;48.824;11.422;2023-06-26T13:50:58;6.63;;;5.93;;
17052;SDS011;8643;48.824;11.422;2023-06-26T13:53:35;8.27;;;5.35;;
17052;SDS011;8643;48.824;11.422;2023-06-26T13:56:03;6.65;;;5.10;;
17052;SDS011;8643;48.824;11.422;2023-06-26T13:58:34;7.82;;;5.55;;
17052;SDS011;8643;48.824;11.422;2023-06-26T14:01:06;5.53;;;4.93;;
17052;SDS011;8643;48.824;11.422;2023-06-26T14:03:34;6.00;;;5.38;;
17052;SDS011;8643;48.824;11.422;2023-06-26T14:06:04;7.43;;;5.45;;
17052;SDS011;8643;48.824;11.422;2023-06-26T14:08:33;7.85;;;5.13;;
17052;SDS011;8643;48.824;11.422;2023-06-26T14:11:02;6.60;;;5.75;;
17052;SDS011;8643;48.824;11.422;2023-06-26T14:13:31;7.07;;;5.20;;
17052;SDS011;8643;48.824;11.422;2023-06-26T14:15:59;5.90;;;5.30;;
17052;SDS011;8643;48.824;11.422;2023-06-26T14:18:28;8.02;;;5.47;;
17052;SDS011;8643;48.824;11.422;2023-06-26T14:20:56;10.32;;;6.00;;
17052;SDS011;8643;48.824;11.422;2023-06-26T14:23:26;8.15;;;5.65;;
17052;SDS011;8643;48.824;11.422;2023-06-26T14:25:55;6.68;;;5.78;;
17052;SDS011;8643;48.824;11.422;2023-06-26T14:28:24;9.10;;;6.03;;
17052;SDS011;8643;48.824;11.422;2023-06-26T14:30:53;6.95;;;5.70;;
17052;SDS011;8643;48.824;11.422;2023-06-26T14:33:21;6.80;;;5.47;;
17052;SDS011;8643;48.824;11.422;2023-06-26T14:35:50;7.97;;;6.20;;
17052;SDS011;8643;48.824;11.422;2023-06-26T14:38:21;8.88;;;6.18;;
17052;SDS011;8643;48.824;11.422;2023-06-26T14:40:51;8.52;;;6.13;;
17052;SDS011;8643;48.824;11.422;2023-06-26T14:43:20;8.55;;;5.88;;
17052;SDS011;8643;48.824;11.422;2023-06-26T14:45:49;9.30;;;6.05;;
17052;SDS011;8643;48.824;11.422;2023-06-26T14:48:18;9.57;;;6.25;;
17052;SDS011;8643;48.824;11.422;2023-06-26T14:50:47;6.80;;;6.10;;
17052;SDS011;8643;48.824;11.422;2023-06-26T14:53:16;8.07;;;6.10;;
17052;SDS011;8643;48.824;11.422;2023-06-26T14:55:45;7.70;;;6.05;;
17052;SDS011;8643;48.824;11.422;2023-06-26T14:58:15;9.02;;;6.53;;
17052;SDS011;8643;48.824;11.422;2023-06-26T15:00:44;9.90;;;5.90;;